Terminal Aerodrome Forecast
Issued by NWS Sterling, VA

Current Version | Previous Version | Text Only | Print | Product List | Glossary Off
Versions: 1 2 3 4 5 6 7 8 9 10 11 12 13 14 15 16 17 18 19 20 21 22 23 24

000
FTUS41 KLWX 222335
TAFMRB
TAF
KMRB 222335Z 2300/2324 23005KT P6SM OVC050
     FM230100 24006KT 3SM SHRA VCTS OVC045CB
     FM230400 24006KT P6SM VCTS BKN045CB
     FM230600 26005KT P6SM BKN070
     FM231800 27006KT P6SM -SHRA VCTS BKN040CB=

USA.gov is the U.S. government's official web portal to all federal, state and local government web resources and services.